createdAt,value
2023-07-07T00:00:46.174Z,374.00
2023-07-07T00:01:46.226Z,372.00
2023-07-07T00:02:46.373Z,374.00
2023-07-07T00:03:47.232Z,374.00
2023-07-07T00:04:46.737Z,374.00
2023-07-07T00:05:46.429Z,376.00
2023-07-07T00:06:46.634Z,375.00
2023-07-07T00:07:46.578Z,376.00
2023-07-07T00:08:46.653Z,377.00
2023-07-07T00:09:46.653Z,377.00
2023-07-07T00:10:46.697Z,377.00
2023-07-07T00:11:46.771Z,376.00
2023-07-07T00:12:46.888Z,374.00
2023-07-07T00:13:46.953Z,374.00
2023-07-07T00:14:46.935Z,375.00
2023-07-07T00:15:47.021Z,375.00
2023-07-07T00:16:47.160Z,373.00
2023-07-07T00:17:47.143Z,373.00
2023-07-07T00:18:47.219Z,373.00
2023-07-07T00:19:47.225Z,377.00
2023-07-07T00:20:47.283Z,377.00
2023-07-07T00:21:47.376Z,379.00
2023-07-07T00:22:47.440Z,379.00
2023-07-07T00:23:47.501Z,380.00
2023-07-07T00:24:47.562Z,381.00
2023-07-07T00:25:47.586Z,384.00
2023-07-07T00:26:47.618Z,382.00
2023-07-07T00:27:47.881Z,381.00
2023-07-07T00:28:47.740Z,383.00
2023-07-07T00:29:47.824Z,383.00
2023-07-07T00:30:47.865Z,380.00
2023-07-07T00:31:47.953Z,380.00
2023-07-07T00:32:48.057Z,379.00
2023-07-07T00:33:48.091Z,376.00
2023-07-07T00:34:48.283Z,377.00
2023-07-07T00:35:48.163Z,377.00
2023-07-07T00:36:48.252Z,376.00
2023-07-07T00:37:48.314Z,377.00
2023-07-07T00:38:48.388Z,375.00
2023-07-07T00:39:48.423Z,380.00
2023-07-07T00:40:48.498Z,381.00
2023-07-07T00:41:48.627Z,378.00
2023-07-07T00:42:48.639Z,379.00
2023-07-07T00:43:48.635Z,377.00
2023-07-07T00:44:48.661Z,376.00
2023-07-07T00:45:48.702Z,375.00
2023-07-07T00:46:48.809Z,379.00
2023-07-07T00:47:48.813Z,379.00
2023-07-07T00:48:48.890Z,383.00
2023-07-07T00:49:48.909Z,382.00
2023-07-07T00:50:48.967Z,383.00
2023-07-07T00:51:49.014Z,382.00
2023-07-07T00:52:49.082Z,387.00
2023-07-07T00:53:49.124Z,386.00
2023-07-07T00:54:49.210Z,384.00
2023-07-07T00:55:49.153Z,381.00
2023-07-07T00:56:49.232Z,382.00
2023-07-07T00:57:49.290Z,384.00
2023-07-07T00:58:49.323Z,382.00
2023-07-07T00:59:49.370Z,380.00
2023-07-07T01:00:49.391Z,380.00
2023-07-07T01:01:49.443Z,381.00
2023-07-07T01:02:49.498Z,379.00
2023-07-07T01:03:49.412Z,380.00
2023-07-07T01:04:49.622Z,379.00
2023-07-07T01:05:49.443Z,377.00
2023-07-07T01:06:49.730Z,377.00
2023-07-07T01:07:49.589Z,375.00
2023-07-07T01:08:49.661Z,375.00
2023-07-07T01:09:49.628Z,376.00
2023-07-07T01:10:49.674Z,377.00
2023-07-07T01:11:49.691Z,377.00
2023-07-07T01:12:49.722Z,378.00
2023-07-07T01:13:49.811Z,375.00
2023-07-07T01:14:49.769Z,375.00
2023-07-07T01:15:49.747Z,375.00
2023-07-07T01:16:49.875Z,373.00
2023-07-07T01:17:49.892Z,371.00
2023-07-07T01:18:49.804Z,373.00
2023-07-07T01:19:49.834Z,376.00
2023-07-07T01:20:49.863Z,376.00
2023-07-07T01:21:49.860Z,377.00
2023-07-07T01:22:49.842Z,377.00
2023-07-07T01:23:49.926Z,374.00
2023-07-07T01:24:49.953Z,375.00
2023-07-07T01:25:49.945Z,376.00
2023-07-07T01:26:49.958Z,375.00
2023-07-07T01:27:49.950Z,373.00
2023-07-07T01:28:50.104Z,373.00
2023-07-07T01:29:50.055Z,371.00
2023-07-07T01:30:50.103Z,371.00
2023-07-07T01:31:50.100Z,372.00
2023-07-07T01:32:50.054Z,373.00
2023-07-07T01:33:50.054Z,374.00
2023-07-07T01:34:50.101Z,375.00
2023-07-07T01:35:50.021Z,376.00
2023-07-07T01:36:50.017Z,375.00
2023-07-07T01:37:49.972Z,374.00
2023-07-07T01:38:50.059Z,375.00
2023-07-07T01:39:50.190Z,374.00
2023-07-07T01:40:50.239Z,375.00
2023-07-07T01:41:50.272Z,375.00
2023-07-07T01:42:50.189Z,378.00
2023-07-07T01:43:50.389Z,378.00
2023-07-07T01:44:50.245Z,376.00
2023-07-07T01:45:50.331Z,376.00
2023-07-07T01:46:50.303Z,377.00
2023-07-07T01:47:50.434Z,382.00
2023-07-07T01:48:50.290Z,381.00
2023-07-07T01:49:50.313Z,381.00
2023-07-07T01:50:50.314Z,382.00
2023-07-07T01:51:50.428Z,381.00
2023-07-07T01:52:50.464Z,380.00
2023-07-07T01:53:50.607Z,382.00
2023-07-07T01:54:50.657Z,382.00
2023-07-07T01:55:50.613Z,380.00
2023-07-07T01:56:50.673Z,378.00
2023-07-07T01:57:50.620Z,376.00
2023-07-07T01:58:50.679Z,375.00
2023-07-07T01:59:50.773Z,372.00
2023-07-07T02:00:50.808Z,372.00
2023-07-07T02:01:50.991Z,370.00
2023-07-07T02:02:51.140Z,373.00
2023-07-07T02:03:51.126Z,374.00
2023-07-07T02:04:51.218Z,371.00
2023-07-07T02:05:51.190Z,371.00
2023-07-07T02:06:51.143Z,369.00
2023-07-07T02:07:51.142Z,374.00
2023-07-07T02:08:51.241Z,376.00
2023-07-07T02:09:51.315Z,375.00
2023-07-07T02:10:51.352Z,372.00
2023-07-07T02:11:51.286Z,374.00
2023-07-07T02:12:51.308Z,374.00
2023-07-07T02:13:51.318Z,378.00
2023-07-07T02:14:51.385Z,378.00
2023-07-07T02:15:51.452Z,376.00
2023-07-07T02:16:51.569Z,376.00
2023-07-07T02:17:51.764Z,374.00
2023-07-07T02:18:51.760Z,372.00
2023-07-07T02:19:51.893Z,373.00
2023-07-07T02:20:52.018Z,372.00
2023-07-07T02:21:52.070Z,372.00
2023-07-07T02:22:52.061Z,373.00
2023-07-07T02:23:52.076Z,375.00
2023-07-07T02:24:52.085Z,376.00
2023-07-07T02:25:52.086Z,376.00
2023-07-07T02:26:52.097Z,376.00
2023-07-07T02:27:52.211Z,378.00
2023-07-07T02:28:52.347Z,377.00
2023-07-07T02:29:52.378Z,376.00
2023-07-07T02:30:52.349Z,378.00
2023-07-07T02:31:52.415Z,382.00
2023-07-07T02:32:52.384Z,382.00
2023-07-07T02:33:52.379Z,382.00
2023-07-07T02:34:52.384Z,382.00
2023-07-07T02:35:52.385Z,381.00
2023-07-07T02:36:52.427Z,383.00
2023-07-07T02:37:52.397Z,384.00
2023-07-07T02:38:52.513Z,384.00
2023-07-07T02:39:52.902Z,382.00
2023-07-07T02:40:52.676Z,381.00
2023-07-07T02:41:52.759Z,386.00
2023-07-07T02:42:52.930Z,388.00
2023-07-07T02:43:54.657Z,384.00
2023-07-07T02:44:53.056Z,382.00
2023-07-07T02:45:53.071Z,380.00
2023-07-07T02:46:53.107Z,381.00
2023-07-07T02:47:53.154Z,380.00
2023-07-07T02:48:53.108Z,379.00
2023-07-07T02:49:53.079Z,378.00
2023-07-07T02:50:53.134Z,375.00
2023-07-07T02:51:53.175Z,376.00
2023-07-07T02:52:53.152Z,375.00
2023-07-07T02:53:53.113Z,375.00
2023-07-07T02:54:53.184Z,374.00
2023-07-07T02:55:53.316Z,374.00
2023-07-07T02:56:53.422Z,372.00
2023-07-07T02:57:53.487Z,370.00
2023-07-07T02:58:53.488Z,369.00
2023-07-07T02:59:53.496Z,369.00
2023-07-07T03:00:53.639Z,370.00
2023-07-07T03:01:53.595Z,370.00
2023-07-07T03:02:53.707Z,367.00
2023-07-07T03:03:53.665Z,369.00
2023-07-07T03:04:53.620Z,369.00
2023-07-07T03:05:53.669Z,370.00
2023-07-07T03:06:53.708Z,373.00
2023-07-07T03:07:53.711Z,372.00
2023-07-07T03:08:53.729Z,374.00
2023-07-07T03:09:53.710Z,374.00
2023-07-07T03:10:53.734Z,373.00
2023-07-07T03:11:53.776Z,374.00
2023-07-07T03:12:53.827Z,373.00
2023-07-07T03:13:53.899Z,374.00
2023-07-07T03:14:53.852Z,374.00
2023-07-07T03:15:53.828Z,373.00
2023-07-07T03:16:53.891Z,372.00
2023-07-07T03:17:53.917Z,371.00
2023-07-07T03:18:53.895Z,372.00
2023-07-07T03:19:53.925Z,373.00
2023-07-07T03:20:53.978Z,375.00
2023-07-07T03:21:53.963Z,374.00
2023-07-07T03:22:54.037Z,373.00
2023-07-07T03:23:54.061Z,372.00
2023-07-07T03:24:54.027Z,373.00
2023-07-07T03:25:54.084Z,374.00
2023-07-07T03:26:54.061Z,376.00
2023-07-07T03:27:54.239Z,374.00
2023-07-07T03:28:54.160Z,373.00
2023-07-07T03:29:54.178Z,371.00
2023-07-07T03:30:54.223Z,368.00
2023-07-07T03:31:54.176Z,367.00
2023-07-07T03:32:54.543Z,368.00
2023-07-07T03:33:54.237Z,367.00
2023-07-07T03:34:54.244Z,367.00
2023-07-07T03:35:54.260Z,368.00
2023-07-07T03:36:54.316Z,368.00
2023-07-07T03:37:54.344Z,368.00
2023-07-07T03:38:54.304Z,369.00
2023-07-07T03:39:54.361Z,369.00
2023-07-07T03:40:54.396Z,371.00
2023-07-07T03:41:54.402Z,370.00
2023-07-07T03:42:54.386Z,369.00
2023-07-07T03:43:54.533Z,373.00
2023-07-07T03:44:54.476Z,376.00
2023-07-07T03:45:54.477Z,375.00
2023-07-07T03:46:54.600Z,375.00
2023-07-07T03:47:54.804Z,376.00
2023-07-07T03:48:54.810Z,375.00
2023-07-07T03:49:54.659Z,375.00
2023-07-07T03:50:54.603Z,377.00
2023-07-07T03:51:54.608Z,377.00
2023-07-07T03:52:54.646Z,375.00
2023-07-07T03:53:54.748Z,372.00
2023-07-07T03:54:54.689Z,374.00
2023-07-07T03:55:54.779Z,372.00
2023-07-07T03:56:54.747Z,375.00
2023-07-07T03:57:54.807Z,375.00
2023-07-07T03:58:54.766Z,378.00
2023-07-07T03:59:54.824Z,379.00
2023-07-07T04:00:54.869Z,378.00
2023-07-07T04:01:54.840Z,378.00
2023-07-07T04:02:54.951Z,376.00
2023-07-07T04:03:55.085Z,378.00
2023-07-07T04:04:55.004Z,380.00
2023-07-07T04:05:55.014Z,381.00
2023-07-07T04:06:55.075Z,382.00
2023-07-07T04:07:55.145Z,382.00
2023-07-07T04:08:55.186Z,384.00
2023-07-07T04:09:55.244Z,387.00
2023-07-07T04:10:55.948Z,390.00
2023-07-07T04:11:55.308Z,392.00
2023-07-07T04:12:55.368Z,396.00
2023-07-07T04:13:55.455Z,400.00
2023-07-07T04:14:55.503Z,399.00
2023-07-07T04:15:55.531Z,398.00
2023-07-07T04:16:55.621Z,398.00
2023-07-07T04:17:55.665Z,395.00
2023-07-07T04:18:55.678Z,395.00
2023-07-07T04:19:55.775Z,398.00
2023-07-07T04:20:56.039Z,400.00
2023-07-07T04:21:55.866Z,402.00
2023-07-07T04:22:55.971Z,405.00
2023-07-07T04:23:55.984Z,409.00
2023-07-07T04:24:56.058Z,410.00
2023-07-07T04:25:56.140Z,410.00
2023-07-07T04:26:56.134Z,411.00
2023-07-07T04:27:56.238Z,412.00
2023-07-07T04:28:56.245Z,414.00
2023-07-07T04:29:56.310Z,412.00
2023-07-07T04:30:56.617Z,411.00
2023-07-07T04:31:56.473Z,411.00
2023-07-07T04:32:56.465Z,414.00
2023-07-07T04:33:56.393Z,415.00
2023-07-07T04:34:56.447Z,415.00
2023-07-07T04:35:56.494Z,414.00
2023-07-07T04:36:56.569Z,414.00
2023-07-07T04:37:56.538Z,412.00
2023-07-07T04:38:56.551Z,412.00
2023-07-07T04:39:56.560Z,413.00
2023-07-07T04:40:56.950Z,412.00
2023-07-07T04:41:56.612Z,412.00
2023-07-07T04:42:56.704Z,410.00
2023-07-07T04:43:56.666Z,411.00
2023-07-07T04:44:56.725Z,411.00
2023-07-07T04:45:56.744Z,411.00
2023-07-07T04:46:56.778Z,412.00
2023-07-07T04:47:56.799Z,412.00
2023-07-07T04:48:56.794Z,413.00
2023-07-07T04:49:56.864Z,415.00
2023-07-07T04:50:57.116Z,413.00
2023-07-07T04:51:56.960Z,408.00
2023-07-07T04:52:57.129Z,406.00
2023-07-07T04:53:57.301Z,406.00
2023-07-07T04:54:57.190Z,404.00
2023-07-07T04:55:56.979Z,403.00
2023-07-07T04:56:56.993Z,404.00
2023-07-07T04:57:57.071Z,404.00
2023-07-07T04:58:57.207Z,406.00
2023-07-07T04:59:57.208Z,403.00
2023-07-07T05:00:57.409Z,403.00
2023-07-07T05:01:57.279Z,402.00
2023-07-07T05:02:57.333Z,403.00
2023-07-07T05:03:57.397Z,402.00
2023-07-07T05:04:57.378Z,404.00
2023-07-07T05:05:57.347Z,403.00
2023-07-07T05:06:57.403Z,403.00
2023-07-07T05:07:57.421Z,405.00
2023-07-07T05:08:57.481Z,405.00
2023-07-07T05:09:57.599Z,407.00
2023-07-07T05:10:57.626Z,410.00
2023-07-07T05:11:58.475Z,409.00
2023-07-07T05:12:57.752Z,407.00
2023-07-07T05:13:57.699Z,408.00
2023-07-07T05:14:57.485Z,410.00
2023-07-07T05:15:57.532Z,409.00
2023-07-07T05:16:57.469Z,406.00
2023-07-07T05:18:00.184Z,406.00
2023-07-07T05:18:57.478Z,407.00
2023-07-07T05:19:57.449Z,409.00
2023-07-07T05:20:57.884Z,405.00
2023-07-07T05:21:57.419Z,405.00
2023-07-07T05:22:57.472Z,404.00
2023-07-07T05:23:57.444Z,404.00
2023-07-07T05:24:57.428Z,403.00
2023-07-07T05:25:57.411Z,402.00
2023-07-07T05:26:58.126Z,404.00
2023-07-07T05:27:57.466Z,404.00
2023-07-07T05:28:57.412Z,403.00
2023-07-07T05:29:57.412Z,401.00
2023-07-07T05:30:57.574Z,400.00
2023-07-07T05:31:57.529Z,403.00
2023-07-07T05:32:57.413Z,403.00
2023-07-07T05:33:57.348Z,400.00
2023-07-07T05:34:57.680Z,400.00
2023-07-07T05:35:57.354Z,397.00
2023-07-07T05:36:57.672Z,398.00
2023-07-07T05:37:57.343Z,399.00
2023-07-07T05:38:57.355Z,398.00
2023-07-07T05:39:57.328Z,400.00
2023-07-07T05:40:57.748Z,404.00
2023-07-07T05:41:57.320Z,406.00
2023-07-07T05:42:57.328Z,406.00
2023-07-07T05:43:57.306Z,404.00
2023-07-07T05:44:57.307Z,403.00
2023-07-07T05:45:57.698Z,406.00
2023-07-07T05:46:57.273Z,407.00
2023-07-07T05:47:57.314Z,408.00
2023-07-07T05:48:57.474Z,407.00
2023-07-07T05:49:57.240Z,406.00
2023-07-07T05:50:59.016Z,404.00
2023-07-07T05:51:57.237Z,401.00
2023-07-07T05:52:57.233Z,399.00
2023-07-07T05:53:57.280Z,398.00
2023-07-07T05:54:57.246Z,399.00
2023-07-07T05:55:57.340Z,401.00
2023-07-07T05:56:57.288Z,402.00
2023-07-07T05:57:57.203Z,403.00
2023-07-07T05:58:57.234Z,404.00
2023-07-07T05:59:57.230Z,407.00
2023-07-07T06:00:57.575Z,407.00
2023-07-07T06:01:57.829Z,407.00
2023-07-07T06:02:57.353Z,408.00
2023-07-07T06:03:57.356Z,407.00
2023-07-07T06:04:57.355Z,406.00
2023-07-07T06:05:57.330Z,404.00
2023-07-07T06:06:57.421Z,401.00
2023-07-07T06:07:57.558Z,401.00
2023-07-07T06:08:57.528Z,398.00
2023-07-07T06:09:57.593Z,398.00
2023-07-07T06:10:57.771Z,397.00
2023-07-07T06:11:57.649Z,399.00
2023-07-07T06:12:58.112Z,398.00
2023-07-07T06:13:57.873Z,397.00
2023-07-07T06:14:57.922Z,397.00
2023-07-07T06:15:58.106Z,398.00
2023-07-07T06:16:58.141Z,397.00
2023-07-07T06:18:00.584Z,396.00
2023-07-07T06:18:58.244Z,398.00
2023-07-07T06:19:58.209Z,398.00
2023-07-07T06:20:58.413Z,397.00
2023-07-07T06:21:58.225Z,400.00
2023-07-07T06:22:58.249Z,399.00
2023-07-07T06:23:58.198Z,400.00
2023-07-07T06:24:58.196Z,398.00
2023-07-07T06:25:58.235Z,395.00
2023-07-07T06:26:58.169Z,395.00
2023-07-07T06:27:58.168Z,395.00
2023-07-07T06:28:58.186Z,396.00
2023-07-07T06:29:58.589Z,400.00
2023-07-07T06:30:58.590Z,402.00
2023-07-07T06:31:58.214Z,403.00
2023-07-07T06:32:58.156Z,403.00
2023-07-07T06:33:58.107Z,402.00
2023-07-07T06:34:58.103Z,402.00
2023-07-07T06:35:58.170Z,401.00
2023-07-07T06:36:58.118Z,402.00
2023-07-07T06:37:58.067Z,403.00
2023-07-07T06:38:58.164Z,403.00
2023-07-07T06:39:58.075Z,402.00
2023-07-07T06:40:58.268Z,399.00
2023-07-07T06:41:58.051Z,398.00
2023-07-07T06:42:58.072Z,395.00
2023-07-07T06:43:58.028Z,394.00
2023-07-07T06:44:58.028Z,396.00
2023-07-07T06:45:58.050Z,396.00
2023-07-07T06:46:58.091Z,398.00
2023-07-07T06:47:58.090Z,401.00
2023-07-07T06:48:58.260Z,405.00
2023-07-07T06:49:58.262Z,420.00
2023-07-07T06:50:58.294Z,669.00
2023-07-07T06:51:58.236Z,458.00
2023-07-07T06:52:58.043Z,440.00
2023-07-07T06:53:57.989Z,438.00
2023-07-07T06:54:58.046Z,437.00
2023-07-07T06:55:58.010Z,448.00
2023-07-07T06:56:57.949Z,542.00
2023-07-07T06:57:57.962Z,533.00
2023-07-07T06:58:57.993Z,536.00
2023-07-07T06:59:57.989Z,546.00
2023-07-07T07:00:58.314Z,567.00
2023-07-07T07:01:57.954Z,614.00
2023-07-07T07:02:58.028Z,623.00
2023-07-07T07:03:57.959Z,631.00
2023-07-07T07:04:57.941Z,500.00
2023-07-07T07:05:58.065Z,537.00
2023-07-07T07:06:57.883Z,571.00
2023-07-07T07:07:57.939Z,606.00
2023-07-07T07:08:57.960Z,614.00
2023-07-07T07:09:57.957Z,625.00
2023-07-07T07:10:58.193Z,630.00
2023-07-07T07:11:58.011Z,638.00
2023-07-07T07:12:57.990Z,647.00
2023-07-07T07:13:58.089Z,659.00
2023-07-07T07:14:58.135Z,678.00
2023-07-07T07:15:58.206Z,698.00
2023-07-07T07:16:58.343Z,712.00
2023-07-07T07:17:58.262Z,713.00
2023-07-07T07:18:58.266Z,717.00
2023-07-07T07:19:58.382Z,721.00
2023-07-07T07:20:58.573Z,716.00
2023-07-07T07:21:58.400Z,717.00
2023-07-07T07:22:58.399Z,649.00
2023-07-07T07:23:58.410Z,648.00
2023-07-07T07:24:58.471Z,642.00
2023-07-07T07:25:58.520Z,635.00
2023-07-07T07:26:58.475Z,626.00
2023-07-07T07:27:58.480Z,618.00
2023-07-07T07:28:58.514Z,608.00
2023-07-07T07:29:58.593Z,599.00
2023-07-07T07:30:58.944Z,592.00
2023-07-07T07:31:58.741Z,581.00
2023-07-07T07:32:58.737Z,571.00
2023-07-07T07:33:58.765Z,557.00
2023-07-07T07:34:58.831Z,551.00
2023-07-07T07:35:58.901Z,549.00
2023-07-07T07:36:58.886Z,546.00
2023-07-07T07:37:58.961Z,539.00
2023-07-07T07:38:58.963Z,530.00
2023-07-07T07:39:59.022Z,525.00
2023-07-07T07:40:59.256Z,520.00
2023-07-07T07:41:59.092Z,517.00
2023-07-07T07:42:59.113Z,513.00
2023-07-07T07:43:59.100Z,509.00
2023-07-07T07:44:59.159Z,508.00
2023-07-07T07:45:59.219Z,504.00
2023-07-07T07:46:59.251Z,499.00
2023-07-07T07:47:59.277Z,496.00
2023-07-07T07:48:59.293Z,493.00
2023-07-07T07:49:59.303Z,490.00
2023-07-07T07:50:59.587Z,488.00
2023-07-07T07:51:59.360Z,488.00
2023-07-07T07:52:59.396Z,486.00
2023-07-07T07:53:59.627Z,478.00
2023-07-07T07:54:59.442Z,474.00
2023-07-07T07:55:59.466Z,471.00
2023-07-07T07:56:59.538Z,470.00
2023-07-07T07:57:59.550Z,467.00
2023-07-07T07:58:59.520Z,466.00
2023-07-07T07:59:59.583Z,464.00
2023-07-07T08:00:59.874Z,463.00
2023-07-07T08:01:59.666Z,460.00
2023-07-07T08:02:59.745Z,462.00
2023-07-07T08:03:59.743Z,469.00
2023-07-07T08:04:59.765Z,480.00
2023-07-07T08:05:59.820Z,486.00
2023-07-07T08:06:59.892Z,492.00
2023-07-07T08:07:59.984Z,496.00
2023-07-07T08:09:00.005Z,495.00
2023-07-07T08:10:00.064Z,492.00
2023-07-07T08:11:09.900Z,490.00
2023-07-07T08:12:01.103Z,490.00
2023-07-07T08:13:00.115Z,490.00
2023-07-07T08:14:00.594Z,490.00
2023-07-07T08:15:00.163Z,487.00
2023-07-07T08:16:00.442Z,486.00
2023-07-07T08:17:00.119Z,484.00
2023-07-07T08:18:00.146Z,481.00
2023-07-07T08:19:00.080Z,482.00
2023-07-07T08:20:00.091Z,483.00
2023-07-07T08:21:00.261Z,485.00
2023-07-07T08:22:00.138Z,486.00
2023-07-07T08:23:00.210Z,485.00
2023-07-07T08:24:00.251Z,484.00
2023-07-07T08:25:00.306Z,481.00
2023-07-07T08:27:38.226Z,478.00
2023-07-07T08:29:00.326Z,477.00
2023-07-07T08:30:00.296Z,476.00
2023-07-07T08:31:00.542Z,476.00
2023-07-07T08:32:00.328Z,474.00
2023-07-07T08:33:00.520Z,476.00
2023-07-07T08:34:02.441Z,473.00
2023-07-07T08:35:00.520Z,472.00
2023-07-07T08:36:00.758Z,474.00
2023-07-07T08:37:00.653Z,476.00
2023-07-07T08:38:01.174Z,476.00
2023-07-07T08:39:00.749Z,478.00
2023-07-07T08:40:00.835Z,476.00
2023-07-07T08:41:01.070Z,477.00
2023-07-07T08:42:00.941Z,475.00
2023-07-07T08:43:00.995Z,473.00
2023-07-07T08:44:01.051Z,469.00
2023-07-07T08:45:01.093Z,469.00
2023-07-07T08:46:01.570Z,469.00
2023-07-07T08:47:01.283Z,471.00
2023-07-07T08:48:01.417Z,468.00
2023-07-07T08:49:01.380Z,464.00
2023-07-07T08:50:04.474Z,462.00
2023-07-07T08:51:02.431Z,464.00
2023-07-07T08:52:01.417Z,462.00
2023-07-07T08:53:01.450Z,460.00
2023-07-07T08:54:13.591Z,457.00
2023-07-07T08:55:02.567Z,457.00
2023-07-07T08:56:01.437Z,456.00
2023-07-07T08:57:01.383Z,457.00
2023-07-07T08:58:01.402Z,457.00
2023-07-07T08:59:01.399Z,456.00
2023-07-07T09:00:01.447Z,456.00
2023-07-07T09:01:01.370Z,455.00
2023-07-07T09:02:01.452Z,453.00
2023-07-07T09:03:01.451Z,452.00
2023-07-07T09:04:01.825Z,453.00
2023-07-07T09:05:01.633Z,456.00
2023-07-07T09:06:01.628Z,458.00
2023-07-07T09:07:01.680Z,458.00
2023-07-07T09:08:01.722Z,458.00
2023-07-07T09:09:01.794Z,459.00
2023-07-07T09:10:01.838Z,458.00
2023-07-07T09:11:01.900Z,461.00
2023-07-07T09:12:01.966Z,462.00
2023-07-07T09:13:02.024Z,461.00
2023-07-07T09:14:02.123Z,462.00
2023-07-07T09:15:02.079Z,460.00
2023-07-07T09:16:02.325Z,458.00
2023-07-07T09:17:02.328Z,456.00
2023-07-07T09:18:02.314Z,455.00
2023-07-07T09:19:02.358Z,457.00
2023-07-07T09:20:02.394Z,458.00
2023-07-07T09:21:02.572Z,459.00
2023-07-07T09:22:02.451Z,459.00
2023-07-07T09:23:02.483Z,461.00
2023-07-07T09:24:02.560Z,464.00
2023-07-07T09:25:02.600Z,462.00
2023-07-07T09:26:02.653Z,462.00
2023-07-07T09:27:02.675Z,463.00
2023-07-07T09:28:04.115Z,461.00
2023-07-07T09:29:02.841Z,460.00
2023-07-07T09:30:02.896Z,460.00
2023-07-07T09:31:02.959Z,458.00
2023-07-07T09:32:03.078Z,456.00
2023-07-07T09:33:03.063Z,456.00
2023-07-07T09:34:03.136Z,455.00
2023-07-07T09:35:03.165Z,453.00
2023-07-07T09:36:03.189Z,451.00
2023-07-07T09:37:03.248Z,451.00
2023-07-07T09:38:03.302Z,451.00
2023-07-07T09:39:03.376Z,452.00
2023-07-07T09:40:03.382Z,450.00
2023-07-07T09:41:03.495Z,450.00
2023-07-07T09:42:03.516Z,445.00
2023-07-07T09:43:03.563Z,441.00
2023-07-07T09:44:03.604Z,440.00
2023-07-07T09:45:03.633Z,437.00
2023-07-07T09:46:03.737Z,436.00
2023-07-07T09:47:03.741Z,433.00
2023-07-07T09:48:03.913Z,432.00
2023-07-07T09:49:03.907Z,430.00
2023-07-07T09:50:03.922Z,426.00
2023-07-07T09:51:03.918Z,426.00
2023-07-07T09:52:03.978Z,426.00
2023-07-07T09:53:13.195Z,426.00
2023-07-07T09:54:05.012Z,427.00
2023-07-07T09:55:03.990Z,423.00
2023-07-07T09:56:04.010Z,420.00
2023-07-07T09:57:04.030Z,420.00
2023-07-07T09:58:03.964Z,419.00
2023-07-07T09:59:04.066Z,419.00
2023-07-07T10:00:03.998Z,416.00
2023-07-07T10:01:04.038Z,418.00
2023-07-07T10:02:04.083Z,421.00
2023-07-07T10:03:03.958Z,420.00
2023-07-07T10:04:04.060Z,420.00
2023-07-07T10:05:04.013Z,420.00
2023-07-07T10:06:04.279Z,422.00
2023-07-07T10:07:04.093Z,422.00
2023-07-07T10:08:04.134Z,423.00
2023-07-07T10:09:04.213Z,426.00
2023-07-07T10:10:04.210Z,424.00
2023-07-07T10:11:27.079Z,423.00
2023-07-07T10:12:20.115Z,422.00
2023-07-07T10:13:05.264Z,421.00
2023-07-07T10:14:04.389Z,418.00
2023-07-07T10:15:04.280Z,416.00
2023-07-07T10:16:04.290Z,414.00
2023-07-07T10:17:04.217Z,414.00
2023-07-07T10:18:04.370Z,414.00
2023-07-07T10:19:04.216Z,411.00
2023-07-07T10:20:04.536Z,412.00
2023-07-07T10:21:04.308Z,412.00
2023-07-07T10:22:04.198Z,411.00
2023-07-07T10:23:04.241Z,410.00
2023-07-07T10:24:05.765Z,410.00
2023-07-07T10:25:04.218Z,414.00
2023-07-07T10:26:04.199Z,419.00
2023-07-07T10:27:04.222Z,420.00
2023-07-07T10:28:04.208Z,421.00
2023-07-07T10:29:04.209Z,418.00
2023-07-07T10:30:04.153Z,418.00
2023-07-07T10:31:04.230Z,417.00
2023-07-07T10:32:04.162Z,416.00
2023-07-07T10:33:04.217Z,413.00
2023-07-07T10:34:04.176Z,410.00
2023-07-07T10:35:04.173Z,409.00
2023-07-07T10:36:06.083Z,408.00
2023-07-07T10:37:04.131Z,409.00
2023-07-07T10:38:04.123Z,412.00
2023-07-07T10:39:04.088Z,414.00
2023-07-07T10:40:04.097Z,415.00
2023-07-07T10:41:04.177Z,416.00
2023-07-07T10:42:04.077Z,418.00
2023-07-07T10:43:04.110Z,417.00
2023-07-07T10:44:04.092Z,414.00
2023-07-07T10:45:04.146Z,413.00
2023-07-07T10:46:04.209Z,412.00
2023-07-07T10:47:08.273Z,410.00
2023-07-07T10:48:05.518Z,411.00
2023-07-07T10:49:04.018Z,413.00
2023-07-07T10:50:04.054Z,414.00
2023-07-07T10:51:04.297Z,411.00
2023-07-07T10:52:05.657Z,411.00
2023-07-07T10:54:05.247Z,413.00
2023-07-07T10:55:03.994Z,411.00
2023-07-07T10:56:04.021Z,409.00
2023-07-07T10:57:03.999Z,409.00
2023-07-07T10:58:03.980Z,409.00
2023-07-07T10:59:03.967Z,407.00
2023-07-07T11:00:03.994Z,406.00
2023-07-07T11:01:04.116Z,406.00
2023-07-07T11:02:04.074Z,407.00
2023-07-07T11:03:04.923Z,407.00
2023-07-07T11:04:04.019Z,404.00
2023-07-07T11:05:03.937Z,406.00
2023-07-07T11:06:04.981Z,407.00
2023-07-07T11:07:03.927Z,406.00
2023-07-07T11:08:03.893Z,405.00
2023-07-07T11:09:03.932Z,406.00
2023-07-07T11:10:05.478Z,406.00
2023-07-07T11:11:04.004Z,405.00
2023-07-07T11:12:03.922Z,405.00
2023-07-07T11:13:04.016Z,406.00
2023-07-07T11:14:03.960Z,405.00
2023-07-07T11:15:03.874Z,403.00
2023-07-07T11:16:04.054Z,404.00
2023-07-07T11:17:03.931Z,404.00
2023-07-07T11:18:03.885Z,406.00
2023-07-07T11:19:03.849Z,407.00
2023-07-07T11:20:03.822Z,407.00
2023-07-07T11:21:03.821Z,406.00
2023-07-07T11:22:03.798Z,406.00
2023-07-07T11:23:03.832Z,408.00
2023-07-07T11:24:03.810Z,407.00
2023-07-07T11:25:03.824Z,405.00
2023-07-07T11:26:03.824Z,406.00
2023-07-07T11:27:03.777Z,406.00
2023-07-07T11:28:03.772Z,407.00
2023-07-07T11:29:03.756Z,406.00
2023-07-07T11:30:03.777Z,409.00
2023-07-07T11:31:03.888Z,411.00
2023-07-07T11:32:03.735Z,411.00
2023-07-07T11:33:03.806Z,410.00
2023-07-07T11:34:03.724Z,410.00
2023-07-07T11:35:03.723Z,409.00
2023-07-07T11:36:03.726Z,405.00
2023-07-07T11:37:03.675Z,404.00
2023-07-07T11:38:03.720Z,404.00
2023-07-07T11:39:03.718Z,404.00
2023-07-07T11:40:03.676Z,403.00
2023-07-07T11:41:03.664Z,402.00
2023-07-07T11:42:03.659Z,402.00
2023-07-07T11:43:03.695Z,404.00
2023-07-07T11:44:03.669Z,407.00
2023-07-07T11:45:03.636Z,406.00
2023-07-07T11:46:03.671Z,405.00
2023-07-07T11:47:03.729Z,406.00
2023-07-07T11:48:03.660Z,408.00
2023-07-07T11:49:03.668Z,406.00
2023-07-07T11:50:03.623Z,405.00
2023-07-07T11:51:03.687Z,406.00
2023-07-07T11:52:03.679Z,407.00
2023-07-07T11:53:03.805Z,405.00
2023-07-07T11:54:03.828Z,406.00
2023-07-07T11:55:03.862Z,404.00
2023-07-07T11:56:03.921Z,405.00
2023-07-07T11:57:04.012Z,403.00
2023-07-07T11:58:04.058Z,405.00
2023-07-07T11:59:04.125Z,406.00
2023-07-07T12:00:04.150Z,404.00
2023-07-07T12:01:04.219Z,400.00
2023-07-07T12:02:04.292Z,396.00
2023-07-07T12:03:04.501Z,397.00
2023-07-07T12:04:04.526Z,400.00
2023-07-07T12:05:04.648Z,400.00
2023-07-07T12:06:04.841Z,401.00
2023-07-07T12:07:04.609Z,402.00
2023-07-07T12:08:04.667Z,402.00
2023-07-07T12:09:04.690Z,403.00
2023-07-07T12:10:04.769Z,403.00
2023-07-07T12:11:04.825Z,403.00
2023-07-07T12:12:04.866Z,405.00
2023-07-07T12:13:04.946Z,403.00
2023-07-07T12:14:05.180Z,401.00
2023-07-07T12:15:05.068Z,399.00
2023-07-07T12:16:05.100Z,399.00
2023-07-07T12:17:05.202Z,397.00
2023-07-07T12:18:05.288Z,397.00
2023-07-07T12:19:05.259Z,397.00
2023-07-07T12:20:05.292Z,396.00
2023-07-07T12:21:05.388Z,396.00
2023-07-07T12:22:05.447Z,397.00
2023-07-07T12:23:05.517Z,398.00
2023-07-07T12:24:05.540Z,395.00
2023-07-07T12:25:05.575Z,393.00
2023-07-07T12:26:05.634Z,394.00
2023-07-07T12:27:05.718Z,393.00
2023-07-07T12:28:05.959Z,394.00
2023-07-07T12:29:05.794Z,391.00
2023-07-07T12:30:05.848Z,393.00
2023-07-07T12:31:05.930Z,396.00
2023-07-07T12:32:06.470Z,399.00